createdAt,value
2022-12-03T00:03:08.758Z,102034.69
2022-12-03T00:05:48.306Z,102034.03
2022-12-03T00:08:33.846Z,102034.34
2022-12-03T00:11:30.857Z,102030.56
2022-12-03T00:14:20.988Z,102027.97
2022-12-03T00:17:11.756Z,102024.41
2022-12-03T00:22:37.024Z,102028.63
2022-12-03T00:28:04.936Z,102022.28
2022-12-03T00:30:49.524Z,102011.13
2022-12-03T00:33:26.020Z,102019.56
2022-12-03T00:36:24.876Z,102007.53
2022-12-03T00:38:57.473Z,102005.75
2022-12-03T00:41:52.301Z,102007.97
2022-12-03T00:44:25.178Z,102008.97
2022-12-03T00:49:51.687Z,102003.94
2022-12-03T00:52:44.928Z,102003.72
2022-12-03T00:55:17.701Z,102003.59
2022-12-03T00:57:50.505Z,102003.59
2022-12-03T01:00:41.418Z,102001.03
2022-12-03T01:06:11.347Z,102012.16
2022-12-03T01:08:43.968Z,102007.81
2022-12-03T01:11:38.638Z,102002.00
2022-12-03T01:14:29.737Z,102012.41
2022-12-03T01:17:02.477Z,102010.25
2022-12-03T01:19:35.956Z,102005.56
2022-12-03T01:22:08.865Z,102006.34
2022-12-03T01:25:02.912Z,102006.91
2022-12-03T01:27:35.585Z,101998.41
2022-12-03T01:33:03.870Z,102000.84
2022-12-03T01:35:37.521Z,102004.19
2022-12-03T01:38:10.090Z,102008.19
2022-12-03T01:41:05.915Z,101996.50
2022-12-03T01:43:55.257Z,102005.75
2022-12-03T01:46:50.902Z,102007.50
2022-12-03T01:49:45.697Z,102002.94
2022-12-03T01:52:44.292Z,101994.94
2022-12-03T01:55:31.428Z,101996.69
2022-12-03T01:58:48.826Z,101989.00
2022-12-03T02:01:21.714Z,101990.94
2022-12-03T02:04:13.893Z,101989.38
2022-12-03T02:07:37.017Z,101989.19
2022-12-03T02:10:38.176Z,101983.88
2022-12-03T02:13:33.946Z,101991.13
2022-12-03T02:16:22.085Z,101986.25
2022-12-03T02:26:10.136Z,101991.47
2022-12-03T02:29:06.357Z,101988.69
2022-12-03T02:31:39.176Z,101978.50
2022-12-03T02:35:01.957Z,101981.22
2022-12-03T02:42:01.455Z,101980.75
2022-12-03T02:45:25.913Z,101978.44
2022-12-03T02:48:56.910Z,101973.72
2022-12-03T02:51:29.646Z,101974.34
2022-12-03T02:54:18.859Z,101971.91
2022-12-03T02:57:12.913Z,101972.69
2022-12-03T03:00:12.627Z,101965.75
2022-12-03T03:03:10.124Z,101963.81
2022-12-03T03:06:06.136Z,101965.19
2022-12-03T03:09:06.475Z,101967.84
2022-12-03T03:11:39.268Z,101957.91
2022-12-03T03:14:16.282Z,101959.91
2022-12-03T03:17:04.660Z,101964.59
2022-12-03T03:26:22.349Z,101957.28
2022-12-03T03:32:22.750Z,101951.97
2022-12-03T03:35:23.532Z,101947.84
2022-12-03T03:38:20.071Z,101947.03
2022-12-03T03:40:53.947Z,101944.25
2022-12-03T03:43:52.991Z,101940.69
2022-12-03T03:49:56.430Z,101941.81
2022-12-03T03:52:50.722Z,101945.72
2022-12-03T03:55:24.358Z,101942.78
2022-12-03T03:58:21.936Z,101932.66
2022-12-03T04:01:24.324Z,101935.09
2022-12-03T04:07:22.618Z,101929.38
2022-12-03T04:11:13.409Z,101930.66
2022-12-03T04:13:46.041Z,101926.59
2022-12-03T04:16:42.065Z,101926.81
2022-12-03T04:20:00.939Z,101936.63
2022-12-03T04:22:54.397Z,101927.28
2022-12-03T04:25:50.900Z,101932.69
2022-12-03T04:38:34.622Z,101931.91
2022-12-03T04:41:07.350Z,101934.78
2022-12-03T04:44:05.924Z,101932.84
2022-12-03T04:46:41.244Z,101932.50
2022-12-03T04:49:13.914Z,101929.72
2022-12-03T04:52:12.728Z,101929.09
2022-12-03T04:55:08.032Z,101918.25
2022-12-03T04:57:43.690Z,101922.59
2022-12-03T05:01:09.053Z,101922.69
2022-12-03T05:04:07.774Z,101921.63
2022-12-03T05:06:41.251Z,101919.13
2022-12-03T05:10:01.753Z,101918.09
2022-12-03T05:12:34.668Z,101911.53
2022-12-03T05:15:18.898Z,101920.25
2022-12-03T05:17:51.567Z,101914.75
2022-12-03T05:23:54.936Z,101918.59
2022-12-03T05:29:23.350Z,101909.28
2022-12-03T05:31:55.971Z,101905.38
2022-12-03T05:34:54.710Z,101903.03
2022-12-03T05:37:53.138Z,101903.03
2022-12-03T05:40:25.984Z,101905.38
2022-12-03T05:43:17.241Z,101903.19
2022-12-03T05:46:41.245Z,101901.19
2022-12-03T05:52:36.359Z,101898.59
2022-12-03T05:58:06.300Z,101893.72
2022-12-03T06:01:05.216Z,101892.59
2022-12-03T06:04:00.625Z,101892.31
2022-12-03T06:06:54.171Z,101887.44
2022-12-03T06:12:22.398Z,101888.09
2022-12-03T06:14:55.505Z,101886.47
2022-12-03T06:17:46.964Z,101879.38
2022-12-03T06:20:43.886Z,101887.75
2022-12-03T06:23:16.606Z,101896.25
2022-12-03T06:25:49.236Z,101888.94
2022-12-03T06:28:38.073Z,101891.00
2022-12-03T06:31:10.690Z,101889.31
2022-12-03T06:34:08.623Z,101893.69
2022-12-03T06:36:41.386Z,101886.44
2022-12-03T06:39:43.848Z,101893.84
2022-12-03T06:42:12.274Z,101895.22
2022-12-03T06:45:00.101Z,101892.47
2022-12-03T06:47:32.734Z,101892.38
2022-12-03T06:50:30.611Z,101889.78
2022-12-03T06:53:04.275Z,101896.28
2022-12-03T06:59:26.912Z,101888.47
2022-12-03T07:03:17.684Z,101889.81
2022-12-03T07:05:50.533Z,101890.94
2022-12-03T07:08:40.846Z,101897.84
2022-12-03T07:11:41.219Z,101889.47
2022-12-03T07:14:16.855Z,101892.13
2022-12-03T07:17:17.231Z,101892.25
2022-12-03T07:20:16.430Z,101896.25
2022-12-03T07:22:49.231Z,101896.94
2022-12-03T07:25:49.593Z,101891.13
2022-12-03T07:28:49.713Z,101900.31
2022-12-03T07:31:34.964Z,101901.41
2022-12-03T07:34:31.530Z,101895.25
2022-12-03T07:37:25.138Z,101890.00
2022-12-03T07:39:57.752Z,101887.78
2022-12-03T07:45:19.155Z,101896.50
2022-12-03T07:47:57.873Z,101885.31
2022-12-03T07:50:30.483Z,101888.44
2022-12-03T07:53:19.675Z,101892.22
2022-12-03T07:56:11.065Z,101897.03
2022-12-03T07:59:09.632Z,101897.13
2022-12-03T08:02:04.576Z,101898.94
2022-12-03T08:04:37.329Z,101892.78
2022-12-03T08:07:10.008Z,101899.94
2022-12-03T08:10:07.442Z,101901.94
2022-12-03T08:12:40.434Z,101902.72
2022-12-03T08:15:40.828Z,101900.03
2022-12-03T08:18:40.545Z,101908.44
2022-12-03T08:21:37.398Z,101901.84
2022-12-03T08:24:43.732Z,101903.16
2022-12-03T08:27:38.058Z,101909.53
2022-12-03T08:31:11.083Z,101905.75
2022-12-03T08:33:40.360Z,101909.63
2022-12-03T08:36:36.544Z,101904.59
2022-12-03T09:06:06.227Z,101918.44
2022-12-03T09:15:23.199Z,101913.59
2022-12-03T09:18:24.281Z,101910.97
2022-12-03T09:21:52.491Z,101911.97
2022-12-03T09:28:54.650Z,101919.56
2022-12-03T09:31:50.306Z,101913.84
2022-12-03T09:34:54.424Z,101911.81
2022-12-03T09:38:27.788Z,101912.63
2022-12-03T12:54:51.717Z,101716.69
2022-12-03T13:32:06.010Z,101687.06
2022-12-03T13:35:55.749Z,101684.47
2022-12-03T13:38:50.054Z,101687.72
2022-12-03T13:41:41.366Z,101688.78
2022-12-03T13:44:31.715Z,101684.88
2022-12-03T13:47:25.895Z,101689.53
2022-12-03T13:50:04.882Z,101683.34
2022-12-03T13:52:47.298Z,101673.69
2022-12-03T13:55:30.730Z,101680.88
2022-12-03T13:58:03.511Z,101676.50
2022-12-03T14:00:36.300Z,101685.66
2022-12-03T14:03:21.496Z,101671.22
2022-12-03T14:05:54.127Z,101670.59
2022-12-03T14:08:26.796Z,101670.59
2022-12-03T14:27:44.005Z,101662.50
2022-12-03T14:30:31.465Z,101666.72
2022-12-03T14:33:04.207Z,101663.44
2022-12-03T14:35:37.257Z,101657.84
2022-12-03T14:38:09.802Z,101663.44
2022-12-03T14:40:51.975Z,101662.50
2022-12-03T14:43:24.608Z,101659.09
2022-12-03T14:45:57.212Z,101657.84
2022-12-03T14:51:16.596Z,101657.84
2022-12-03T14:54:01.406Z,101652.91
2022-12-03T14:56:34.311Z,101647.56
2022-12-03T14:59:06.938Z,101656.28
2022-12-03T15:01:40.846Z,101652.41
2022-12-03T15:04:31.026Z,101656.16
2022-12-03T15:09:51.039Z,101650.06
2022-12-03T15:12:38.503Z,101644.94
2022-12-03T15:16:01.672Z,101644.53
2022-12-03T15:21:53.799Z,101640.56
2022-12-03T15:31:13.696Z,101645.41
2022-12-03T15:37:32.754Z,101651.41
2022-12-03T15:40:06.538Z,101653.22
2022-12-03T15:42:51.773Z,101649.22
2022-12-03T15:45:58.160Z,101651.84
2022-12-03T15:48:31.524Z,101651.03
2022-12-03T15:51:38.310Z,101654.94
2022-12-03T15:54:23.676Z,101656.19
2022-12-03T15:57:19.241Z,101653.69
2022-12-03T15:59:57.836Z,101648.06
2022-12-03T16:05:51.891Z,101652.75
2022-12-03T16:08:35.932Z,101654.56
2022-12-03T16:11:20.293Z,101642.63
2022-12-03T16:14:06.732Z,101648.34
2022-12-03T16:20:59.872Z,101642.09
2022-12-03T16:24:04.426Z,101638.72
2022-12-03T16:32:43.823Z,101640.03
2022-12-03T16:35:34.841Z,101635.88
2022-12-03T16:38:44.622Z,101634.34
2022-12-03T16:41:32.381Z,101642.38
2022-12-03T16:48:00.649Z,101634.28
2022-12-03T16:50:42.575Z,101620.31
2022-12-03T16:54:05.590Z,101636.81
2022-12-03T16:56:38.237Z,101628.06
2022-12-03T16:59:10.897Z,101631.75
2022-12-03T17:01:43.849Z,101628.63
2022-12-03T17:04:16.511Z,101633.44
2022-12-03T17:06:49.083Z,101632.34
2022-12-03T17:09:21.612Z,101639.13
2022-12-03T17:11:54.272Z,101629.19
2022-12-03T17:14:32.807Z,101634.44
2022-12-03T17:19:47.395Z,101622.63
2022-12-03T17:22:19.953Z,101631.44
2022-12-03T17:25:02.943Z,101630.69
2022-12-03T17:36:14.996Z,101617.31
2022-12-03T17:58:06.505Z,101606.22
2022-12-03T18:00:39.143Z,101602.00
2022-12-03T18:03:17.831Z,101605.22
2022-12-03T18:05:50.350Z,101610.03
2022-12-03T18:08:22.924Z,101606.81
2022-12-03T18:10:58.545Z,101607.59
2022-12-03T18:13:31.144Z,101605.13
2022-12-03T18:16:03.911Z,101604.19
2022-12-03T18:18:36.677Z,101603.31
2022-12-03T18:21:09.326Z,101600.84
2022-12-03T18:23:42.737Z,101601.94
2022-12-03T18:26:15.309Z,101606.16
2022-12-03T18:28:59.795Z,101611.47
2022-12-03T18:31:32.327Z,101607.44
2022-12-03T18:34:07.905Z,101613.66
2022-12-03T18:36:40.419Z,101613.56
2022-12-03T18:39:41.669Z,101605.09
2022-12-03T18:42:20.326Z,101608.50
2022-12-03T18:44:56.048Z,101606.03
2022-12-03T18:47:29.511Z,101601.06
2022-12-03T18:50:02.213Z,101601.72
2022-12-03T18:52:34.771Z,101603.28
2022-12-03T18:55:08.603Z,101591.19
2022-12-03T18:57:41.162Z,101598.19
2022-12-03T19:00:17.588Z,101605.34
2022-12-03T19:03:02.910Z,101598.81
2022-12-03T19:05:36.428Z,101597.91
2022-12-03T19:08:14.744Z,101594.66
2022-12-03T19:10:57.039Z,101594.53
2022-12-03T19:13:46.469Z,101583.97
2022-12-03T19:35:21.473Z,101582.56
2022-12-03T19:38:40.498Z,101595.94
2022-12-03T19:51:36.356Z,101590.28
2022-12-03T19:54:20.037Z,101596.00
2022-12-03T19:56:54.977Z,101592.09
2022-12-03T19:59:27.816Z,101585.09
2022-12-03T20:02:00.431Z,101584.78
2022-12-03T20:04:33.056Z,101584.91
2022-12-03T20:07:06.712Z,101587.38
2022-12-03T20:10:03.487Z,101577.19
2022-12-03T20:15:37.631Z,101578.03
2022-12-03T20:18:16.046Z,101584.88
2022-12-03T20:20:48.631Z,101577.34
2022-12-03T20:23:21.287Z,101588.22
2022-12-03T20:25:54.982Z,101585.56
2022-12-03T20:28:29.304Z,101588.34
2022-12-03T20:31:14.731Z,101581.34
2022-12-03T20:33:51.601Z,101576.66
2022-12-03T20:36:26.315Z,101571.72
2022-12-03T20:39:02.948Z,101578.69
2022-12-03T20:41:37.449Z,101578.84
2022-12-03T20:44:10.236Z,101568.88
2022-12-03T20:46:43.002Z,101565.44
2022-12-03T20:49:15.937Z,101559.53
2022-12-03T20:51:50.297Z,101562.00
2022-12-03T20:54:23.588Z,101562.47
2022-12-03T20:56:56.141Z,101563.25
2022-12-03T20:59:28.644Z,101561.34
2022-12-03T21:04:57.434Z,101567.84
2022-12-03T21:07:30.130Z,101559.16
2022-12-03T21:10:02.856Z,101554.50
2022-12-03T21:12:35.432Z,101554.50
2022-12-03T21:15:08.485Z,101557.72
2022-12-03T21:17:41.067Z,101546.69
2022-12-03T21:20:19.372Z,101559.09
2022-12-03T21:22:53.684Z,101553.19
2022-12-03T21:25:27.942Z,101539.69
2022-12-03T21:28:00.447Z,101546.81
2022-12-03T21:30:45.585Z,101541.44
2022-12-03T21:36:19.886Z,101545.75
2022-12-03T21:38:53.648Z,101547.72
2022-12-03T21:41:38.612Z,101537.88
2022-12-03T21:44:26.516Z,101536.00
2022-12-03T21:47:11.640Z,101538.66
2022-12-03T21:49:51.934Z,101533.72
2022-12-03T21:52:41.843Z,101531.78
2022-12-03T21:55:17.393Z,101531.91
2022-12-03T21:57:58.438Z,101526.97
2022-12-03T22:00:34.386Z,101530.84
2022-12-03T22:03:16.269Z,101536.97
2022-12-03T22:05:50.280Z,101535.38
2022-12-03T22:08:23.019Z,101537.56
2022-12-03T22:25:08.462Z,101541.31
2022-12-03T22:27:41.171Z,101541.16
2022-12-03T22:30:35.633Z,101540.69
2022-12-03T22:33:50.983Z,101530.78
2022-12-03T22:36:28.897Z,101532.16
2022-12-03T22:39:49.618Z,101525.06
2022-12-03T22:43:03.704Z,101523.81
2022-12-03T22:45:56.323Z,101523.38
2022-12-03T22:53:04.451Z,101534.03
2022-12-03T22:55:57.711Z,101523.50
2022-12-03T22:58:45.814Z,101520.38
2022-12-03T23:02:03.722Z,101518.84
2022-12-03T23:04:57.405Z,101513.25
2022-12-03T23:13:23.270Z,101523.75
2022-12-03T23:16:02.636Z,101512.25
2022-12-03T23:18:35.224Z,101514.72
2022-12-03T23:21:28.999Z,101514.72
2022-12-03T23:24:08.770Z,101512.53
2022-12-03T23:26:56.685Z,101510.06
2022-12-03T23:29:34.087Z,101503.19
2022-12-03T23:32:06.902Z,101516.81
2022-12-03T23:34:39.524Z,101496.94
2022-12-03T23:37:22.352Z,101505.00
2022-12-03T23:39:56.509Z,101505.94
2022-12-03T23:42:29.313Z,101512.59
2022-12-03T23:45:02.205Z,101506.25
2022-12-03T23:50:23.772Z,101505.28
2022-12-03T23:53:02.860Z,101498.13
2022-12-03T23:55:40.571Z,101491.13
2022-12-03T23:58:28.930Z,101491.91
